sensor_id;sensor_type;location;lat;lon;timestamp;pressure;altitude;pressure_sealevel;temperature;humidity
60061;BME280;45933;51.336;12.612;2023-12-22T00:01:10;97435.81;;;5.93;59.66
60061;BME280;45933;51.336;12.612;2023-12-22T00:03:37;97433.22;;;5.93;59.57
60061;BME280;45933;51.336;12.612;2023-12-22T00:06:02;97460.25;;;5.82;59.72
60061;BME280;45933;51.336;12.612;2023-12-22T00:08:27;97434.34;;;5.83;59.56
60061;BME280;45933;51.336;12.612;2023-12-22T00:10:53;97452.25;;;5.91;59.25
60061;BME280;45933;51.336;12.612;2023-12-22T00:13:18;97467.03;;;5.86;58.96
60061;BME280;45933;51.336;12.612;2023-12-22T00:15:43;97446.31;;;5.87;59.28
60061;BME280;45933;51.336;12.612;2023-12-22T00:18:09;97452.41;;;5.85;59.17
60061;BME280;45933;51.336;12.612;2023-12-22T00:20:34;97448.00;;;5.88;59.05
60061;BME280;45933;51.336;12.612;2023-12-22T00:23:00;97463.56;;;5.87;59.43
60061;BME280;45933;51.336;12.612;2023-12-22T00:25:25;97479.25;;;5.81;59.27
60061;BME280;45933;51.336;12.612;2023-12-22T00:27:51;97464.28;;;5.90;59.68
60061;BME280;45933;51.336;12.612;2023-12-22T00:30:16;97503.03;;;5.93;59.27
60061;BME280;45933;51.336;12.612;2023-12-22T00:32:41;97479.88;;;5.89;59.61
60061;BME280;45933;51.336;12.612;2023-12-22T00:35:07;97484.97;;;5.90;59.52
60061;BME280;45933;51.336;12.612;2023-12-22T00:37:33;97497.03;;;5.93;59.55
60061;BME280;45933;51.336;12.612;2023-12-22T00:39:58;97472.16;;;5.87;59.60
60061;BME280;45933;51.336;12.612;2023-12-22T00:42:23;97508.25;;;5.90;59.64
60061;BME280;45933;51.336;12.612;2023-12-22T00:44:49;97510.03;;;5.88;59.58
60061;BME280;45933;51.336;12.612;2023-12-22T00:47:14;97481.66;;;5.87;59.72
60061;BME280;45933;51.336;12.612;2023-12-22T00:49:39;97494.47;;;5.90;59.59
60061;BME280;45933;51.336;12.612;2023-12-22T00:52:05;97510.75;;;5.95;59.75
60061;BME280;45933;51.336;12.612;2023-12-22T00:54:30;97505.56;;;5.95;59.49
60061;BME280;45933;51.336;12.612;2023-12-22T00:56:57;97515.06;;;5.94;59.63
60061;BME280;45933;51.336;12.612;2023-12-22T00:59:22;97508.09;;;5.98;59.40
60061;BME280;45933;51.336;12.612;2023-12-22T01:01:47;97514.03;;;6.00;59.50
60061;BME280;45933;51.336;12.612;2023-12-22T01:04:13;97507.06;;;6.03;59.70
60061;BME280;45933;51.336;12.612;2023-12-22T01:06:38;97505.56;;;5.96;59.37
60061;BME280;45933;51.336;12.612;2023-12-22T01:09:04;97514.16;;;5.97;59.20
60061;BME280;45933;51.336;12.612;2023-12-22T01:11:29;97520.06;;;6.00;59.51
60061;BME280;45933;51.336;12.612;2023-12-22T01:13:54;97520.88;;;6.02;59.15
60061;BME280;45933;51.336;12.612;2023-12-22T01:16:20;97529.44;;;6.05;59.37
60061;BME280;45933;51.336;12.612;2023-12-22T01:18:47;97542.47;;;6.01;59.08
60061;BME280;45933;51.336;12.612;2023-12-22T01:21:12;97550.91;;;6.08;59.73
60061;BME280;45933;51.336;12.612;2023-12-22T01:23:38;97558.66;;;6.08;59.95
60061;BME280;45933;51.336;12.612;2023-12-22T01:26:03;97562.03;;;6.12;59.90
60061;BME280;45933;51.336;12.612;2023-12-22T01:28:28;97575.81;;;6.11;59.92
60061;BME280;45933;51.336;12.612;2023-12-22T01:30:53;97571.53;;;6.10;59.82
60061;BME280;45933;51.336;12.612;2023-12-22T01:33:19;97569.78;;;6.10;59.58
60061;BME280;45933;51.336;12.612;2023-12-22T01:35:44;97564.63;;;6.10;60.05
60061;BME280;45933;51.336;12.612;2023-12-22T01:38:09;97583.69;;;6.08;59.58
60061;BME280;45933;51.336;12.612;2023-12-22T01:40:34;97583.69;;;6.08;59.79
60061;BME280;45933;51.336;12.612;2023-12-22T01:43:01;97580.25;;;6.06;59.87
60061;BME280;45933;51.336;12.612;2023-12-22T01:45:26;97588.88;;;6.06;59.84
60061;BME280;45933;51.336;12.612;2023-12-22T01:47:51;97586.28;;;6.06;59.69
60061;BME280;45933;51.336;12.612;2023-12-22T01:50:17;97588.03;;;6.06;59.38
60061;BME280;45933;51.336;12.612;2023-12-22T01:52:43;97589.88;;;6.02;59.72
60061;BME280;45933;51.336;12.612;2023-12-22T01:55:10;97588.91;;;6.05;59.54
60061;BME280;45933;51.336;12.612;2023-12-22T01:57:37;97593.25;;;6.04;59.68
60061;BME280;45933;51.336;12.612;2023-12-22T02:00:03;97588.00;;;6.07;59.55
60061;BME280;45933;51.336;12.612;2023-12-22T02:02:30;97576.72;;;6.10;59.41
60061;BME280;45933;51.336;12.612;2023-12-22T02:04:57;97587.94;;;6.09;59.36
60061;BME280;45933;51.336;12.612;2023-12-22T02:07:22;97571.66;;;6.05;59.34
60061;BME280;45933;51.336;12.612;2023-12-22T02:09:48;97568.19;;;6.06;58.86
60061;BME280;45933;51.336;12.612;2023-12-22T02:12:13;97568.09;;;6.09;58.93
60061;BME280;45933;51.336;12.612;2023-12-22T02:14:38;97567.34;;;6.06;58.72
60061;BME280;45933;51.336;12.612;2023-12-22T02:17:39;97567.00;;;6.18;58.86
60061;BME280;45933;51.336;12.612;2023-12-22T02:20:09;97571.47;;;6.11;58.55
60061;BME280;45933;51.336;12.612;2023-12-22T02:22:34;97560.28;;;6.11;58.78
60061;BME280;45933;51.336;12.612;2023-12-22T02:25:00;97563.72;;;6.13;58.60
60061;BME280;45933;51.336;12.612;2023-12-22T02:30:18;97559.56;;;6.06;58.42
60061;BME280;45933;51.336;12.612;2023-12-22T02:32:49;97539.84;;;6.03;57.90
60061;BME280;45933;51.336;12.612;2023-12-22T02:35:19;97563.16;;;6.01;57.81
60061;BME280;45933;51.336;12.612;2023-12-22T02:37:48;97551.03;;;6.03;57.73
60061;BME280;45933;51.336;12.612;2023-12-22T02:40:15;97538.16;;;6.02;57.91
60061;BME280;45933;51.336;12.612;2023-12-22T02:42:41;97551.09;;;6.00;57.93
60061;BME280;45933;51.336;12.612;2023-12-22T02:45:13;97547.66;;;6.01;58.41
60061;BME280;45933;51.336;12.612;2023-12-22T02:47:39;97551.25;;;5.96;57.92
60061;BME280;45933;51.336;12.612;2023-12-22T02:50:04;97552.16;;;5.93;58.19
60061;BME280;45933;51.336;12.612;2023-12-22T02:52:30;97544.56;;;5.87;58.12
60061;BME280;45933;51.336;12.612;2023-12-22T02:54:56;97558.53;;;5.80;58.55
60061;BME280;45933;51.336;12.612;2023-12-22T02:57:22;97572.31;;;5.79;58.54
60061;BME280;45933;51.336;12.612;2023-12-22T02:59:47;97557.00;;;5.73;58.67
60061;BME280;45933;51.336;12.612;2023-12-22T03:02:13;97559.75;;;5.67;58.85
60061;BME280;45933;51.336;12.612;2023-12-22T03:04:38;97562.16;;;5.73;58.83
60061;BME280;45933;51.336;12.612;2023-12-22T03:07:03;97550.97;;;5.72;58.98
60061;BME280;45933;51.336;12.612;2023-12-22T03:09:29;97552.66;;;5.75;59.10
60061;BME280;45933;51.336;12.612;2023-12-22T03:11:54;97542.53;;;5.66;58.73
60061;BME280;45933;51.336;12.612;2023-12-22T03:14:21;97540.63;;;5.72;58.95
60061;BME280;45933;51.336;12.612;2023-12-22T03:16:46;97552.66;;;5.73;59.10
60061;BME280;45933;51.336;12.612;2023-12-22T03:19:12;97542.38;;;5.72;58.79
60061;BME280;45933;51.336;12.612;2023-12-22T03:21:37;97542.31;;;5.75;58.94
60061;BME280;45933;51.336;12.612;2023-12-22T03:24:02;97544.06;;;5.73;58.54
60061;BME280;45933;51.336;12.612;2023-12-22T03:26:28;97558.84;;;5.68;58.13
60061;BME280;45933;51.336;12.612;2023-12-22T03:28:53;97530.28;;;5.72;58.40
60061;BME280;45933;51.336;12.612;2023-12-22T03:31:18;97527.66;;;5.74;58.38
60061;BME280;45933;51.336;12.612;2023-12-22T03:33:44;97527.66;;;5.74;58.28
60061;BME280;45933;51.336;12.612;2023-12-22T03:36:09;97532.03;;;5.72;58.24
60061;BME280;45933;51.336;12.612;2023-12-22T03:38:34;97532.81;;;5.74;58.52
60061;BME280;45933;51.336;12.612;2023-12-22T03:40:59;97529.63;;;5.66;58.85
60061;BME280;45933;51.336;12.612;2023-12-22T03:43:25;97549.72;;;5.55;59.08
60061;BME280;45933;51.336;12.612;2023-12-22T03:45:50;97535.81;;;5.59;58.92
60061;BME280;45933;51.336;12.612;2023-12-22T03:48:15;97547.88;;;5.60;58.71
60061;BME280;45933;51.336;12.612;2023-12-22T03:50:41;97538.44;;;5.57;59.00
60061;BME280;45933;51.336;12.612;2023-12-22T03:53:06;97530.88;;;5.51;58.70
60061;BME280;45933;51.336;12.612;2023-12-22T03:55:31;97533.50;;;5.49;58.94
60061;BME280;45933;51.336;12.612;2023-12-22T03:57:56;97537.66;;;5.54;58.85
60061;BME280;45933;51.336;12.612;2023-12-22T04:00:22;97528.28;;;5.51;58.84
60061;BME280;45933;51.336;12.612;2023-12-22T04:02:47;97547.16;;;5.53;58.53
60061;BME280;45933;51.336;12.612;2023-12-22T04:05:12;97562.91;;;5.44;58.67
60061;BME280;45933;51.336;12.612;2023-12-22T04:07:37;97524.06;;;5.48;58.52
60061;BME280;45933;51.336;12.612;2023-12-22T04:10:03;97536.06;;;5.49;58.55
60061;BME280;45933;51.336;12.612;2023-12-22T04:12:28;97526.66;;;5.47;58.54
60061;BME280;45933;51.336;12.612;2023-12-22T04:14:53;97539.66;;;5.44;58.24
60061;BME280;45933;51.336;12.612;2023-12-22T04:17:19;97553.38;;;5.46;58.54
60061;BME280;45933;51.336;12.612;2023-12-22T04:19:44;97542.88;;;5.52;58.87
60061;BME280;45933;51.336;12.612;2023-12-22T04:22:09;97552.44;;;5.50;59.30
60061;BME280;45933;51.336;12.612;2023-12-22T04:24:35;97576.63;;;5.46;59.72
60061;BME280;45933;51.336;12.612;2023-12-22T04:27:00;97527.75;;;5.38;60.62
60061;BME280;45933;51.336;12.612;2023-12-22T04:29:25;97513.97;;;5.38;60.77
60061;BME280;45933;51.336;12.612;2023-12-22T04:31:50;97522.72;;;5.32;61.02
60061;BME280;45933;51.336;12.612;2023-12-22T04:34:16;97505.38;;;5.37;60.78
60061;BME280;45933;51.336;12.612;2023-12-22T04:36:41;97504.75;;;5.29;61.28
60061;BME280;45933;51.336;12.612;2023-12-22T04:39:06;97506.50;;;5.27;61.21
60061;BME280;45933;51.336;12.612;2023-12-22T04:41:32;97512.66;;;5.23;61.21
60061;BME280;45933;51.336;12.612;2023-12-22T04:43:57;97518.94;;;5.13;61.39
60061;BME280;45933;51.336;12.612;2023-12-22T04:46:23;97527.59;;;5.10;61.33
60061;BME280;45933;51.336;12.612;2023-12-22T04:48:48;97542.28;;;5.08;61.11
60061;BME280;45933;51.336;12.612;2023-12-22T04:51:13;97549.34;;;5.00;61.70
60061;BME280;45933;51.336;12.612;2023-12-22T04:53:38;97547.44;;;5.08;61.07
60061;BME280;45933;51.336;12.612;2023-12-22T04:56:04;97532.91;;;5.04;61.39
60061;BME280;45933;51.336;12.612;2023-12-22T04:58:29;97534.59;;;5.05;61.27
60061;BME280;45933;51.336;12.612;2023-12-22T05:00:55;97523.53;;;5.00;61.00
60061;BME280;45933;51.336;12.612;2023-12-22T05:03:20;97521.78;;;5.01;61.12
60061;BME280;45933;51.336;12.612;2023-12-22T05:05:45;97533.94;;;4.97;61.31
60061;BME280;45933;51.336;12.612;2023-12-22T05:08:10;97524.56;;;4.93;61.15
60061;BME280;45933;51.336;12.612;2023-12-22T05:10:35;97520.19;;;4.95;61.10
60061;BME280;45933;51.336;12.612;2023-12-22T05:13:01;97539.25;;;4.91;61.27
60061;BME280;45933;51.336;12.612;2023-12-22T05:15:26;97528.84;;;4.94;61.12
60061;BME280;45933;51.336;12.612;2023-12-22T05:17:52;97512.59;;;4.89;61.27
60061;BME280;45933;51.336;12.612;2023-12-22T05:20:17;97543.56;;;4.90;61.40
60061;BME280;45933;51.336;12.612;2023-12-22T05:22:43;97532.56;;;4.82;61.72
60061;BME280;45933;51.336;12.612;2023-12-22T05:25:08;97534.22;;;4.85;62.00
60061;BME280;45933;51.336;12.612;2023-12-22T05:27:35;97519.50;;;4.88;62.07
60061;BME280;45933;51.336;12.612;2023-12-22T05:30:00;97516.13;;;4.85;62.00
60061;BME280;45933;51.336;12.612;2023-12-22T05:32:28;97524.03;;;4.79;62.20
60061;BME280;45933;51.336;12.612;2023-12-22T05:34:53;97510.88;;;4.89;61.49
60061;BME280;45933;51.336;12.612;2023-12-22T05:37:18;97522.19;;;4.85;61.96
60061;BME280;45933;51.336;12.612;2023-12-22T05:39:43;97544.53;;;4.85;61.54
60061;BME280;45933;51.336;12.612;2023-12-22T05:42:10;97527.34;;;4.84;61.60
60061;BME280;45933;51.336;12.612;2023-12-22T05:44:35;97542.03;;;4.82;61.45
60061;BME280;45933;51.336;12.612;2023-12-22T05:47:01;97546.25;;;4.86;61.22
60061;BME280;45933;51.336;12.612;2023-12-22T05:49:26;97539.31;;;4.88;61.00
60061;BME280;45933;51.336;12.612;2023-12-22T05:51:51;97542.75;;;4.88;60.60
60061;BME280;45933;51.336;12.612;2023-12-22T05:54:17;97553.16;;;4.85;60.58
60061;BME280;45933;51.336;12.612;2023-12-22T05:56:44;97552.25;;;4.86;60.60
60061;BME280;45933;51.336;12.612;2023-12-22T05:59:09;97547.94;;;4.87;60.37
60061;BME280;45933;51.336;12.612;2023-12-22T06:01:35;97535.84;;;4.89;60.37
60061;BME280;45933;51.336;12.612;2023-12-22T06:04:01;97544.41;;;4.91;60.16
60061;BME280;45933;51.336;12.612;2023-12-22T06:06:27;97544.47;;;4.88;59.94
60061;BME280;45933;51.336;12.612;2023-12-22T06:08:52;97553.91;;;4.90;59.90
60061;BME280;45933;51.336;12.612;2023-12-22T06:11:18;97556.38;;;4.93;59.94
60061;BME280;45933;51.336;12.612;2023-12-22T06:13:43;97551.13;;;4.98;60.03
60061;BME280;45933;51.336;12.612;2023-12-22T06:16:15;97554.50;;;5.02;59.65
60061;BME280;45933;51.336;12.612;2023-12-22T06:18:41;97549.38;;;4.98;59.67
60061;BME280;45933;51.336;12.612;2023-12-22T06:21:08;97552.72;;;5.04;59.45
60061;BME280;45933;51.336;12.612;2023-12-22T06:23:34;97549.22;;;5.06;59.17
60061;BME280;45933;51.336;12.612;2023-12-22T06:25:59;97561.13;;;5.12;59.16
60061;BME280;45933;51.336;12.612;2023-12-22T06:28:27;97562.72;;;5.16;59.18
60061;BME280;45933;51.336;12.612;2023-12-22T06:30:52;97561.81;;;5.18;59.00
60061;BME280;45933;51.336;12.612;2023-12-22T06:33:17;97550.59;;;5.19;58.66
60061;BME280;45933;51.336;12.612;2023-12-22T06:35:42;97574.69;;;5.20;58.71
60061;BME280;45933;51.336;12.612;2023-12-22T06:38:09;97580.97;;;5.10;58.99
60061;BME280;45933;51.336;12.612;2023-12-22T06:40:36;97588.50;;;5.19;59.11
60061;BME280;45933;51.336;12.612;2023-12-22T06:43:03;97585.84;;;5.22;59.30
60061;BME280;45933;51.336;12.612;2023-12-22T06:45:29;97598.19;;;5.09;59.40
60061;BME280;45933;51.336;12.612;2023-12-22T06:47:55;97603.25;;;5.14;59.59
60061;BME280;45933;51.336;12.612;2023-12-22T06:50:20;97598.03;;;5.15;59.76
60061;BME280;45933;51.336;12.612;2023-12-22T06:52:45;97599.97;;;5.07;60.29
60061;BME280;45933;51.336;12.612;2023-12-22T06:55:10;97627.44;;;5.10;60.37
60061;BME280;45933;51.336;12.612;2023-12-22T06:57:36;97621.38;;;5.11;60.28
60061;BME280;45933;51.336;12.612;2023-12-22T07:00:01;97611.94;;;5.10;61.13
60061;BME280;45933;51.336;12.612;2023-12-22T07:02:27;97633.44;;;5.12;61.32
60061;BME280;45933;51.336;12.612;2023-12-22T07:05:41;97594.66;;;5.13;61.65
60061;BME280;45933;51.336;12.612;2023-12-22T07:07:47;97621.44;;;5.09;61.80
60061;BME280;45933;51.336;12.612;2023-12-22T07:10:12;97623.31;;;5.03;61.93
60061;BME280;45933;51.336;12.612;2023-12-22T07:12:38;97616.41;;;5.03;61.84
60061;BME280;45933;51.336;12.612;2023-12-22T07:15:05;97619.88;;;5.02;62.31
60061;BME280;45933;51.336;12.612;2023-12-22T07:17:32;97656.03;;;5.01;62.31
60061;BME280;45933;51.336;12.612;2023-12-22T07:19:57;97650.97;;;4.97;62.38
60061;BME280;45933;51.336;12.612;2023-12-22T07:22:22;97661.28;;;4.97;62.82
60061;BME280;45933;51.336;12.612;2023-12-22T07:24:48;97659.59;;;4.96;62.79
60061;BME280;45933;51.336;12.612;2023-12-22T07:27:14;97655.28;;;4.95;63.37
60061;BME280;45933;51.336;12.612;2023-12-22T07:29:39;97669.13;;;4.93;63.59
60061;BME280;45933;51.336;12.612;2023-12-22T07:32:05;97681.16;;;4.94;62.91
60061;BME280;45933;51.336;12.612;2023-12-22T07:34:30;97643.38;;;4.90;63.21
60061;BME280;45933;51.336;12.612;2023-12-22T07:36:56;97647.88;;;4.82;63.50
60061;BME280;45933;51.336;12.612;2023-12-22T07:39:21;97632.28;;;4.85;63.42
60061;BME280;45933;51.336;12.612;2023-12-22T07:41:47;97641.78;;;4.84;63.20
60061;BME280;45933;51.336;12.612;2023-12-22T07:44:13;97638.34;;;4.84;63.18
60061;BME280;45933;51.336;12.612;2023-12-22T07:46:38;97647.88;;;4.82;63.75
60061;BME280;45933;51.336;12.612;2023-12-22T07:49:04;97657.50;;;4.73;63.52
60061;BME280;45933;51.336;12.612;2023-12-22T07:51:29;97667.81;;;4.75;64.01
60061;BME280;45933;51.336;12.612;2023-12-22T07:53:54;97689.31;;;4.74;63.90
60061;BME280;45933;51.336;12.612;2023-12-22T07:56:19;97694.50;;;4.72;63.55
60061;BME280;45933;51.336;12.612;2023-12-22T07:58:44;97689.19;;;4.80;63.54
60061;BME280;45933;51.336;12.612;2023-12-22T08:01:10;97690.00;;;4.82;63.67
60061;BME280;45933;51.336;12.612;2023-12-22T08:03:35;97688.19;;;4.87;63.49
60061;BME280;45933;51.336;12.612;2023-12-22T08:06:02;97683.88;;;4.88;63.44
60061;BME280;45933;51.336;12.612;2023-12-22T08:08:28;97694.16;;;4.91;63.37
60061;BME280;45933;51.336;12.612;2023-12-22T08:10:53;97677.69;;;4.95;63.60
60061;BME280;45933;51.336;12.612;2023-12-22T08:13:19;97681.94;;;4.97;63.62
60061;BME280;45933;51.336;12.612;2023-12-22T08:15:44;97686.19;;;5.00;63.74
60061;BME280;45933;51.336;12.612;2023-12-22T08:18:10;97708.56;;;5.01;63.22
60061;BME280;45933;51.336;12.612;2023-12-22T08:20:35;97713.78;;;4.98;62.82
60061;BME280;45933;51.336;12.612;2023-12-22T08:23:00;97747.16;;;5.06;62.26
60061;BME280;45933;51.336;12.612;2023-12-22T08:25:26;97743.69;;;5.08;61.56
60061;BME280;45933;51.336;12.612;2023-12-22T08:27:51;97743.59;;;5.11;61.14
60061;BME280;45933;51.336;12.612;2023-12-22T08:30:17;97762.44;;;5.16;61.04
60061;BME280;45933;51.336;12.612;2023-12-22T08:32:42;97747.72;;;5.20;61.18
60061;BME280;45933;51.336;12.612;2023-12-22T08:35:07;97745.06;;;5.24;61.08
60061;BME280;45933;51.336;12.612;2023-12-22T08:37:33;97755.34;;;5.26;61.01
60061;BME280;45933;51.336;12.612;2023-12-22T08:39:58;97781.16;;;5.28;60.93
60061;BME280;45933;51.336;12.612;2023-12-22T08:42:25;97785.56;;;5.22;60.31
60061;BME280;45933;51.336;12.612;2023-12-22T08:44:50;97783.72;;;5.29;60.12
60061;BME280;45933;51.336;12.612;2023-12-22T08:47:16;97782.88;;;5.29;60.08
60061;BME280;45933;51.336;12.612;2023-12-22T08:49:41;97776.81;;;5.30;60.10
60061;BME280;45933;51.336;12.612;2023-12-22T08:52:07;97778.50;;;5.31;59.83
60061;BME280;45933;51.336;12.612;2023-12-22T08:54:32;97780.25;;;5.30;60.14
60061;BME280;45933;51.336;12.612;2023-12-22T08:56:59;97764.59;;;5.36;60.01
60061;BME280;45933;51.336;12.612;2023-12-22T08:59:24;97779.16;;;5.40;59.34
60061;BME280;45933;51.336;12.612;2023-12-22T09:01:49;97767.00;;;5.45;59.36
60061;BME280;45933;51.336;12.612;2023-12-22T09:04:15;97765.97;;;5.53;58.24
60061;BME280;45933;51.336;12.612;2023-12-22T09:06:41;97787.38;;;5.59;58.02
60061;BME280;45933;51.336;12.612;2023-12-22T09:09:07;97783.75;;;5.66;58.21
60061;BME280;45933;51.336;12.612;2023-12-22T09:11:34;97778.59;;;5.66;57.70
60061;BME280;45933;51.336;12.612;2023-12-22T09:13:59;97792.16;;;5.76;58.28
60061;BME280;45933;51.336;12.612;2023-12-22T09:16:24;97793.03;;;5.75;57.99
60061;BME280;45933;51.336;12.612;2023-12-22T09:18:50;97781.72;;;5.81;57.83
60061;BME280;45933;51.336;12.612;2023-12-22T09:21:16;97768.94;;;5.73;57.04
60061;BME280;45933;51.336;12.612;2023-12-22T09:23:43;97805.97;;;5.75;56.76
60061;BME280;45933;51.336;12.612;2023-12-22T09:26:10;97805.84;;;5.80;57.40
60061;BME280;45933;51.336;12.612;2023-12-22T09:28:36;97813.69;;;5.76;57.09
60061;BME280;45933;51.336;12.612;2023-12-22T09:31:01;97803.38;;;5.75;57.19
60061;BME280;45933;51.336;12.612;2023-12-22T09:33:27;97807.13;;;5.62;57.64
60061;BME280;45933;51.336;12.612;2023-12-22T09:35:52;97825.09;;;5.66;57.78
60061;BME280;45933;51.336;12.612;2023-12-22T09:38:17;97828.50;;;5.68;58.10
60061;BME280;45933;51.336;12.612;2023-12-22T09:40:43;97825.25;;;5.59;58.07
60061;BME280;45933;51.336;12.612;2023-12-22T09:43:08;97870.09;;;5.58;58.63
60061;BME280;45933;51.336;12.612;2023-12-22T09:45:35;97862.53;;;5.48;58.46
60061;BME280;45933;51.336;12.612;2023-12-22T09:48:01;97872.03;;;5.46;58.65
60061;BME280;45933;51.336;12.612;2023-12-22T09:50:27;97913.47;;;5.43;59.71
60061;BME280;45933;51.336;12.612;2023-12-22T09:52:53;97870.53;;;5.36;59.99
60061;BME280;45933;51.336;12.612;2023-12-22T09:55:23;97876.91;;;5.18;61.04
60061;BME280;45933;51.336;12.612;2023-12-22T09:57:51;97883.25;;;5.01;61.41
60061;BME280;45933;51.336;12.612;2023-12-22T10:00:17;97897.94;;;4.98;61.68
60061;BME280;45933;51.336;12.612;2023-12-22T10:02:43;97894.66;;;4.90;61.97
60061;BME280;45933;51.336;12.612;2023-12-22T10:05:10;97886.19;;;4.82;62.83
60061;BME280;45933;51.336;12.612;2023-12-22T10:07:38;97885.44;;;4.76;63.13
60061;BME280;45933;51.336;12.612;2023-12-22T10:10:04;97866.63;;;4.69;63.19
60061;BME280;45933;51.336;12.612;2023-12-22T10:12:31;97876.09;;;4.70;63.33
60061;BME280;45933;51.336;12.612;2023-12-22T10:15:00;97875.25;;;4.68;63.96
60061;BME280;45933;51.336;12.612;2023-12-22T10:17:26;97882.16;;;4.66;63.63
60061;BME280;45933;51.336;12.612;2023-12-22T10:19:52;97860.69;;;4.65;64.58
60061;BME280;45933;51.336;12.612;2023-12-22T10:22:17;97868.28;;;4.73;65.89
60061;BME280;45933;51.336;12.612;2023-12-22T10:24:45;97873.09;;;4.93;66.75
60061;BME280;45933;51.336;12.612;2023-12-22T10:27:16;97865.53;;;5.27;67.34
60061;BME280;45933;51.336;12.612;2023-12-22T10:29:56;97861.19;;;5.71;66.07
60061;BME280;45933;51.336;12.612;2023-12-22T10:32:22;97852.66;;;6.08;64.48
60061;BME280;45933;51.336;12.612;2023-12-22T10:34:50;97850.94;;;6.42;63.50
60061;BME280;45933;51.336;12.612;2023-12-22T10:37:16;97853.47;;;6.79;62.27
60061;BME280;45933;51.336;12.612;2023-12-22T10:39:41;97849.16;;;7.13;61.96
60061;BME280;45933;51.336;12.612;2023-12-22T10:42:07;97842.38;;;7.38;60.94
60061;BME280;45933;51.336;12.612;2023-12-22T10:44:32;97837.72;;;7.79;63.78
60061;BME280;45933;51.336;12.612;2023-12-22T10:47:00;97829.75;;;8.13;61.71
60061;BME280;45933;51.336;12.612;2023-12-22T10:49:25;97833.34;;;8.37;59.19
60061;BME280;45933;51.336;12.612;2023-12-22T10:51:51;97823.19;;;8.56;57.75
60061;BME280;45933;51.336;12.612;2023-12-22T10:54:17;97803.28;;;8.81;57.03
60061;BME280;45933;51.336;12.612;2023-12-22T10:56:43;97795.44;;;9.06;56.37
60061;BME280;45933;51.336;12.612;2023-12-22T10:59:08;97806.78;;;9.29;54.92
60061;BME280;45933;51.336;12.612;2023-12-22T11:01:36;97796.88;;;9.38;53.57
60061;BME280;45933;51.336;12.612;2023-12-22T11:04:07;97810.69;;;9.40;53.80
60061;BME280;45933;51.336;12.612;2023-12-22T11:06:37;97794.16;;;9.41;53.93
60061;BME280;45933;51.336;12.612;2023-12-22T11:09:08;97797.47;;;9.23;52.62
60061;BME280;45933;51.336;12.612;2023-12-22T11:11:37;97784.91;;;9.11;53.31
60061;BME280;45933;51.336;12.612;2023-12-22T11:14:04;97802.94;;;8.90;53.39
60061;BME280;45933;51.336;12.612;2023-12-22T11:16:34;97798.50;;;8.69;52.45
60061;BME280;45933;51.336;12.612;2023-12-22T11:19:01;97789.50;;;8.54;53.16
60061;BME280;45933;51.336;12.612;2023-12-22T11:21:27;97792.56;;;8.41;53.26
60061;BME280;45933;51.336;12.612;2023-12-22T11:23:54;97773.09;;;8.26;53.83
60061;BME280;45933;51.336;12.612;2023-12-22T11:26:22;97757.81;;;8.17;54.21
60061;BME280;45933;51.336;12.612;2023-12-22T11:28:50;97778.75;;;8.12;54.26
60061;BME280;45933;51.336;12.612;2023-12-22T11:31:17;97770.22;;;8.08;54.70
60061;BME280;45933;51.336;12.612;2023-12-22T11:33:47;97764.75;;;8.16;54.95
60061;BME280;45933;51.336;12.612;2023-12-22T11:36:14;97782.16;;;8.14;53.68
60061;BME280;45933;51.336;12.612;2023-12-22T11:38:40;97764.75;;;8.16;54.59
60061;BME280;45933;51.336;12.612;2023-12-22T11:41:09;97798.50;;;8.16;52.99
60061;BME280;45933;51.336;12.612;2023-12-22T11:43:37;97795.13;;;8.14;52.63
60061;BME280;45933;51.336;12.612;2023-12-22T11:46:03;97821.97;;;8.13;52.37
60061;BME280;45933;51.336;12.612;2023-12-22T11:48:29;97778.94;;;8.06;51.23
60061;BME280;45933;51.336;12.612;2023-12-22T11:50:54;97748.34;;;7.89;52.21
60061;BME280;45933;51.336;12.612;2023-12-22T11:53:25;97754.72;;;7.79;52.03
60061;BME280;45933;51.336;12.612;2023-12-22T11:56:02;97775.91;;;7.65;52.89
60061;BME280;45933;51.336;12.612;2023-12-22T11:58:45;97764.31;;;7.49;53.28
60061;BME280;45933;51.336;12.612;2023-12-22T12:01:22;97776.25;;;7.25;53.85
60061;BME280;45933;51.336;12.612;2023-12-22T12:08:52;97805.09;;;6.81;56.08
60061;BME280;45933;51.336;12.612;2023-12-22T12:11:19;97801.97;;;6.69;56.50
60061;BME280;45933;51.336;12.612;2023-12-22T12:13:46;97791.03;;;6.59;56.99
60061;BME280;45933;51.336;12.612;2023-12-22T12:16:12;97780.97;;;6.47;57.68
60061;BME280;45933;51.336;12.612;2023-12-22T12:18:39;97795.03;;;6.37;57.76
60061;BME280;45933;51.336;12.612;2023-12-22T12:21:06;97791.75;;;6.30;57.69
60061;BME280;45933;51.336;12.612;2023-12-22T12:23:32;97799.09;;;6.13;58.12
60061;BME280;45933;51.336;12.612;2023-12-22T12:25:57;97793.28;;;6.03;57.54
60061;BME280;45933;51.336;12.612;2023-12-22T12:28:31;97803.00;;;5.90;57.51
60061;BME280;45933;51.336;12.612;2023-12-22T12:30:58;97781.88;;;5.73;57.77
60061;BME280;45933;51.336;12.612;2023-12-22T12:33:27;97795.22;;;5.53;58.28
60061;BME280;45933;51.336;12.612;2023-12-22T12:35:56;97781.66;;;5.45;57.84
60061;BME280;45933;51.336;12.612;2023-12-22T12:39:08;97789.72;;;5.30;58.30
60061;BME280;45933;51.336;12.612;2023-12-22T12:41:15;97787.50;;;5.13;58.58
60061;BME280;45933;51.336;12.612;2023-12-22T12:43:42;97783.47;;;4.98;59.04
60061;BME280;45933;51.336;12.612;2023-12-22T12:46:08;97787.16;;;4.86;59.30
60061;BME280;45933;51.336;12.612;2023-12-22T12:48:33;97793.34;;;4.78;59.59
60061;BME280;45933;51.336;12.612;2023-12-22T12:51:05;97790.03;;;4.71;59.98
60061;BME280;45933;51.336;12.612;2023-12-22T12:53:31;97799.66;;;4.61;60.12
60061;BME280;45933;51.336;12.612;2023-12-22T12:55:58;97805.75;;;4.57;60.10
60061;BME280;45933;51.336;12.612;2023-12-22T12:58:32;97803.22;;;4.56;60.03
60061;BME280;45933;51.336;12.612;2023-12-22T13:01:06;97805.09;;;4.46;60.40
60061;BME280;45933;51.336;12.612;2023-12-22T13:03:31;97805.25;;;4.38;60.70